Time;durP1;ratioP1;P1;durP2;ratioP2;P2;SDS_P1;SDS_P2;PMS_P1;PMS_P2;Temp;Humidity;BMP_temperature;BMP_pressure;BME280_temperature;BME280_humidity;BME280_pressure;Samples;Min_cycle;Max_cycle;Signal;HPM_P1;HPM_P2
2021/07/16 00:00:16;;;;;;;4.70;3.10;;;15.60;99.90;;;;;;6239606;22;20613;-90
2021/07/16 00:02:44;;;;;;;2.67;2.47;;;15.50;99.90;;;;;;6256856;22;20396;-90
2021/07/16 00:05:10;;;;;;;4.00;2.20;;;15.60;99.90;;;;;;6238447;22;20393;-90
2021/07/16 00:07:38;;;;;;;2.83;2.63;;;15.60;99.90;;;;;;6237415;22;20420;-90
2021/07/16 00:10:07;;;;;;;2.90;2.70;;;15.60;99.90;;;;;;6236956;22;20487;-89
2021/07/16 00:12:34;;;;;;;3.10;2.90;;;15.60;99.90;;;;;;6237867;22;20437;-90
2021/07/16 00:15:00;;;;;;;3.30;3.00;;;15.60;99.90;;;;;;6237518;22;20431;-90
2021/07/16 00:17:31;;;;;;;3.00;2.73;;;15.50;99.90;;;;;;6237058;22;20393;-92
2021/07/16 00:19:58;;;;;;;3.53;3.33;;;15.50;99.90;;;;;;6265477;22;20173;-92
2021/07/16 00:22:32;;;;;;;3.83;2.97;;;15.40;99.90;;;;;;6238033;22;20727;-91
2021/07/16 00:24:58;;;;;;;4.13;3.73;;;15.30;99.90;;;;;;6237531;22;20172;-91
2021/07/16 00:27:24;;;;;;;3.57;3.37;;;15.30;99.90;;;;;;6237224;22;20392;-91
2021/07/16 00:29:49;;;;;;;4.00;3.20;;;15.20;99.90;;;;;;6238763;22;20170;-90
2021/07/16 00:32:18;;;;;;;4.60;3.70;;;15.10;99.90;;;;;;6238106;22;20166;-89
2021/07/16 00:34:44;;;;;;;3.03;2.73;;;15.00;99.90;;;;;;6237709;22;20189;-88
2021/07/16 00:37:09;;;;;;;4.40;2.90;;;15.00;99.90;;;;;;6237844;22;20451;-89
2021/07/16 00:39:37;;;;;;;6.03;3.00;;;15.10;99.90;;;;;;6238207;22;20497;-89
2021/07/16 00:42:04;;;;;;;3.60;3.20;;;15.10;99.90;;;;;;6212201;22;20171;-90
2021/07/16 00:44:39;;;;;;;4.50;2.70;;;15.20;99.90;;;;;;6237652;22;20469;-90
2021/07/16 00:47:09;;;;;;;2.30;2.10;;;15.20;99.90;;;;;;6238018;22;20415;-91
2021/07/16 00:49:35;;;;;;;2.47;2.27;;;15.30;99.90;;;;;;6234952;23;20422;-91
2021/07/16 00:52:06;;;;;;;3.37;2.47;;;15.50;99.90;;;;;;6231789;23;20555;-91
2021/07/16 00:54:33;;;;;;;4.10;3.23;;;15.50;99.90;;;;;;6232973;23;20635;-91
2021/07/16 00:56:58;;;;;;;3.53;2.93;;;15.50;99.90;;;;;;6233212;23;20397;-90
2021/07/16 00:59:25;;;;;;;6.33;2.80;;;15.50;99.90;;;;;;6233166;23;20389;-90
2021/07/16 01:01:54;;;;;;;2.67;2.47;;;15.50;99.90;;;;;;6233915;23;20167;-90
2021/07/16 01:04:20;;;;;;;3.13;2.87;;;15.70;99.90;;;;;;6233037;23;20390;-91
2021/07/16 01:06:45;;;;;;;3.50;3.10;;;15.70;99.90;;;;;;6232115;23;22531;-90
2021/07/16 01:09:11;;;;;;;3.73;3.43;;;15.70;99.90;;;;;;6234593;23;20163;-90
2021/07/16 01:11:37;;;;;;;2.80;2.60;;;15.70;99.90;;;;;;6232993;23;20981;-90
2021/07/16 01:14:03;;;;;;;5.50;4.60;;;15.80;99.90;;;;;;6233020;23;20649;-90
2021/07/16 01:16:29;;;;;;;6.33;5.73;;;15.90;99.90;;;;;;6228853;22;20170;-90
2021/07/16 01:18:55;;;;;;;8.03;7.20;;;16.00;99.90;;;;;;6231454;23;20163;-90
2021/07/16 01:21:23;;;;;;;13.07;11.77;;;15.90;99.90;;;;;;6234119;23;20429;-90
2021/07/16 01:23:51;;;;;;;13.20;11.90;;;16.00;99.90;;;;;;6232019;23;20166;-90
2021/07/16 01:26:17;;;;;;;15.47;13.60;;;16.00;99.90;;;;;;6208228;23;20553;-91
2021/07/16 01:28:44;;;;;;;13.67;12.37;;;16.00;99.90;;;;;;6233048;23;20409;-91
2021/07/16 01:31:11;;;;;;;12.50;11.30;;;16.10;99.90;;;;;;6231816;23;20472;-91
2021/07/16 01:33:39;;;;;;;12.17;10.97;;;16.10;99.90;;;;;;6232931;23;20437;-92
2021/07/16 01:36:05;;;;;;;12.50;11.10;;;16.10;99.90;;;;;;6232662;23;20390;-91
2021/07/16 01:38:30;;;;;;;14.00;10.40;;;16.10;99.90;;;;;;6233273;23;20402;-92
2021/07/16 01:40:56;;;;;;;13.50;10.07;;;16.20;99.90;;;;;;6233697;23;20159;-92
2021/07/16 01:43:22;;;;;;;12.90;9.60;;;16.20;99.90;;;;;;6231736;23;20163;-92
2021/07/16 01:45:48;;;;;;;13.70;10.10;;;16.20;99.90;;;;;;6232795;23;20194;-91
2021/07/16 01:48:16;;;;;;;11.87;8.77;;;16.20;99.90;;;;;;6231639;23;20545;-91
2021/07/16 01:50:49;;;;;;;9.90;9.00;;;16.30;99.90;;;;;;6233872;23;20533;-93
2021/07/16 01:53:19;;;;;;;11.63;10.53;;;16.30;99.90;;;;;;6234351;22;20527;-92
2021/07/16 01:55:48;;;;;;;11.23;10.23;;;16.20;99.90;;;;;;6233273;23;20397;-92
2021/07/16 01:58:15;;;;;;;13.77;10.47;;;16.10;99.90;;;;;;6233592;22;20389;-93
2021/07/16 02:00:46;;;;;;;11.90;10.77;;;16.10;99.90;;;;;;6232858;23;20386;-93
2021/07/16 02:03:15;;;;;;;14.93;12.60;;;16.00;99.90;;;;;;6229837;23;20741;-92
2021/07/16 02:05:48;;;;;;;12.83;11.53;;;16.00;99.90;;;;;;6232402;23;20453;-93
2021/07/16 02:08:19;;;;;;;14.53;12.07;;;16.00;99.90;;;;;;6208146;23;20705;-92
2021/07/16 02:10:52;;;;;;;13.87;12.30;;;15.90;99.90;;;;;;6233242;23;20695;-91
2021/07/16 02:13:18;;;;;;;13.40;11.87;;;15.90;99.90;;;;;;6232410;23;20430;-92
2021/07/16 02:15:47;;;;;;;12.43;11.23;;;16.00;99.90;;;;;;6232041;23;20399;-92
2021/07/16 02:18:14;;;;;;;13.27;11.90;;;16.10;99.90;;;;;;6230549;23;20717;-91
2021/07/16 02:20:42;;;;;;;13.10;10.60;;;16.10;99.90;;;;;;6231243;23;20398;-92
2021/07/16 02:23:17;;;;;;;14.10;11.37;;;16.10;99.90;;;;;;6231877;23;20710;-92
2021/07/16 02:25:43;;;;;;;12.53;10.93;;;16.20;99.90;;;;;;6233009;23;20826;-93
2021/07/16 02:28:21;;;;;;;14.80;13.30;;;16.20;99.90;;;;;;6231986;23;20412;-92
2021/07/16 02:30:48;;;;;;;15.27;12.70;;;16.20;99.90;;;;;;6233133;23;20488;-92
2021/07/16 02:33:17;;;;;;;19.07;13.37;;;16.10;99.90;;;;;;6231593;23;20437;-92
2021/07/16 02:35:55;;;;;;;14.10;12.67;;;16.00;99.90;;;;;;6233063;22;20389;-93
2021/07/16 02:38:22;;;;;;;17.47;15.13;;;16.00;99.90;;;;;;6232566;22;20389;-94
2021/07/16 02:40:56;;;;;;;16.20;13.60;;;16.00;99.90;;;;;;6229951;23;20401;-93
2021/07/16 02:43:22;;;;;;;10.17;9.17;;;15.90;99.90;;;;;;6232752;23;20390;-92
2021/07/16 02:45:49;;;;;;;13.40;12.00;;;16.00;99.90;;;;;;6230570;23;20456;-93
2021/07/16 02:48:20;;;;;;;17.03;13.40;;;16.00;99.90;;;;;;6231346;23;20795;-93
2021/07/16 02:50:47;;;;;;;14.27;12.80;;;16.00;99.90;;;;;;6231796;23;20393;-92
2021/07/16 02:53:15;;;;;;;16.10;14.40;;;15.90;99.90;;;;;;6233700;23;20437;-94
2021/07/16 02:55:42;;;;;;;18.27;14.40;;;15.90;99.90;;;;;;6232066;23;20398;-92
2021/07/16 02:58:08;;;;;;;18.80;15.80;;;15.90;99.90;;;;;;6234340;23;20736;-92
2021/07/16 03:00:35;;;;;;;17.93;15.43;;;15.90;99.90;;;;;;6232684;23;20394;-91
2021/07/16 03:03:02;;;;;;;20.00;16.40;;;15.80;99.90;;;;;;6233524;23;20695;-91
2021/07/16 03:05:30;;;;;;;17.97;15.20;;;15.90;99.90;;;;;;6233897;23;20935;-92
2021/07/16 03:07:59;;;;;;;19.20;16.40;;;15.90;99.90;;;;;;6233355;23;20405;-91
2021/07/16 03:10:31;;;;;;;17.80;15.17;;;15.90;99.90;;;;;;6233314;23;20418;-92
2021/07/16 03:13:03;;;;;;;15.50;13.87;;;15.90;99.90;;;;;;6232907;23;20834;-91
2021/07/16 03:15:29;;;;;;;15.97;13.63;;;15.90;99.90;;;;;;6233477;23;20394;-92
2021/07/16 03:17:56;;;;;;;15.13;13.40;;;16.00;99.90;;;;;;6235032;23;20397;-92
2021/07/16 03:20:28;;;;;;;14.77;13.23;;;16.00;99.90;;;;;;6236043;23;20535;-91
2021/07/16 03:22:54;;;;;;;15.20;13.23;;;16.00;99.90;;;;;;6237074;23;20394;-92
2021/07/16 03:25:22;;;;;;;17.80;14.50;;;16.00;99.90;;;;;;6236147;23;20799;-91
2021/07/16 03:27:49;;;;;;;17.17;14.00;;;16.10;99.90;;;;;;6236285;23;20401;-90
2021/07/16 03:30:18;;;;;;;19.17;16.03;;;16.10;99.90;;;;;;6236065;23;20382;-91
2021/07/16 03:32:51;;;;;;;18.83;15.90;;;16.00;99.90;;;;;;6234082;23;20396;-92
2021/07/16 03:35:19;;;;;;;18.37;14.60;;;15.90;99.90;;;;;;6235437;23;20485;-91
2021/07/16 03:37:53;;;;;;;17.87;15.97;;;15.90;99.90;;;;;;6236311;22;20753;-91
2021/07/16 03:40:22;;;;;;;13.47;11.83;;;15.90;99.90;;;;;;6234860;23;20626;-91
2021/07/16 03:42:49;;;;;;;14.30;10.30;;;15.90;99.90;;;;;;6235313;23;21219;-91
2021/07/16 03:45:18;;;;;;;11.90;9.57;;;15.90;99.90;;;;;;6235877;23;20995;-92
2021/07/16 03:47:47;;;;;;;12.40;10.20;;;15.90;99.90;;;;;;6215048;22;20448;-91
2021/07/16 03:50:17;;;;;;;14.47;10.77;;;15.90;99.90;;;;;;6243805;22;20423;-91
2021/07/16 03:52:42;;;;;;;12.00;10.70;;;15.90;99.90;;;;;;6241788;22;20432;-90
2021/07/16 03:55:09;;;;;;;12.27;10.00;;;15.90;99.90;;;;;;6232314;22;20432;-91
2021/07/16 03:57:47;;;;;;;13.07;9.23;;;15.80;99.90;;;;;;6238090;22;20596;-90
2021/07/16 04:00:17;;;;;;;11.70;8.70;;;15.80;99.90;;;;;;6238902;22;20412;-91
2021/07/16 04:02:43;;;;;;;13.43;10.07;;;15.80;99.90;;;;;;6237871;22;20393;-90
2021/07/16 04:05:10;;;;;;;10.80;8.23;;;15.80;99.90;;;;;;6237857;22;21206;-90
2021/07/16 04:07:44;;;;;;;9.30;7.93;;;15.90;99.90;;;;;;6237625;22;20424;-91
2021/07/16 04:10:11;;;;;;;8.17;6.30;;;15.90;99.90;;;;;;6214512;22;20405;-91
2021/07/16 04:12:37;;;;;;;9.10;5.63;;;16.00;99.90;;;;;;6239428;22;20393;-90
2021/07/16 04:15:03;;;;;;;6.43;5.83;;;16.00;99.90;;;;;;6237403;22;20621;-90
2021/07/16 04:17:39;;;;;;;9.67;5.53;;;15.90;99.90;;;;;;6265573;22;20620;-90
2021/07/16 04:20:05;;;;;;;5.50;5.00;;;15.80;99.90;;;;;;6238095;22;20413;-90
2021/07/16 04:22:31;;;;;;;7.27;5.00;;;15.80;99.90;;;;;;6264014;22;20495;-90
2021/07/16 04:24:57;;;;;;;7.77;5.33;;;15.90;99.90;;;;;;6236350;22;20393;-90
2021/07/16 04:27:23;;;;;;;6.63;4.97;;;16.00;99.90;;;;;;6229273;22;20223;-90
2021/07/16 04:29:51;;;;;;;6.60;5.20;;;16.00;99.90;;;;;;6237894;22;20400;-90
2021/07/16 04:32:16;;;;;;;5.70;5.17;;;16.00;99.90;;;;;;6238897;22;20170;-90
2021/07/16 04:34:43;;;;;;;5.73;4.70;;;16.00;99.90;;;;;;6238727;22;20451;-93
2021/07/16 04:37:09;;;;;;;5.63;5.13;;;15.90;99.90;;;;;;6237332;22;20198;-90
2021/07/16 04:39:36;;;;;;;5.90;5.27;;;16.00;99.90;;;;;;6237819;22;20429;-90
2021/07/16 04:42:07;;;;;;;5.40;4.80;;;16.00;99.90;;;;;;6238682;22;20421;-93
2021/07/16 04:44:35;;;;;;;9.90;5.00;;;16.00;99.90;;;;;;6238147;22;20400;-91
2021/07/16 04:47:01;;;;;;;5.43;5.00;;;16.10;99.90;;;;;;6239087;22;20443;-95
2021/07/16 04:49:28;;;;;;;7.30;6.00;;;16.20;99.90;;;;;;6233318;23;20413;-92
2021/07/16 04:51:54;;;;;;;5.93;5.33;;;16.20;99.90;;;;;;6209915;23;20398;-91
2021/07/16 04:54:20;;;;;;;7.53;5.90;;;16.20;99.90;;;;;;6234791;23;20437;-92
2021/07/16 04:56:47;;;;;;;8.77;6.17;;;16.10;99.90;;;;;;6232308;23;20385;-89
2021/07/16 04:59:13;;;;;;;7.17;5.87;;;16.10;99.90;;;;;;6233371;23;20386;-89
2021/07/16 05:01:40;;;;;;;9.03;5.70;;;16.10;99.90;;;;;;6243255;23;20393;-96
2021/07/16 05:04:09;;;;;;;6.43;5.93;;;16.10;99.90;;;;;;6234912;23;20409;-93
2021/07/16 05:06:34;;;;;;;7.47;6.50;;;16.10;99.90;;;;;;6235519;23;20400;-94
2021/07/16 05:09:00;;;;;;;9.37;8.50;;;15.90;99.90;;;;;;6237202;23;20764;-95
2021/07/16 05:11:30;;;;;;;8.40;7.60;;;15.80;99.90;;;;;;6237020;23;20374;-95
2021/07/16 05:14:01;;;;;;;8.50;7.63;;;15.80;99.90;;;;;;6239418;23;20480;-95
2021/07/16 05:16:28;;;;;;;7.70;6.93;;;15.90;99.90;;;;;;6240735;23;20386;-96
2021/07/16 05:18:54;;;;;;;8.77;7.97;;;15.80;99.90;;;;;;6239445;23;20398;-96
2021/07/16 05:21:20;;;;;;;10.57;9.47;;;15.90;99.90;;;;;;6241004;23;20389;-94
2021/07/16 05:23:47;;;;;;;9.57;8.23;;;15.90;99.90;;;;;;6237961;23;20899;-96
2021/07/16 05:26:13;;;;;;;11.17;9.97;;;16.00;99.90;;;;;;6237690;23;20167;-94
2021/07/16 05:28:42;;;;;;;11.70;10.50;;;16.10;99.90;;;;;;6239999;23;20397;-96
2021/07/16 05:31:10;;;;;;;14.70;13.40;;;16.20;99.90;;;;;;6241121;23;21026;-96
2021/07/16 05:33:36;;;;;;;17.50;15.47;;;16.20;99.90;;;;;;6238485;23;20430;-95
2021/07/16 05:36:02;;;;;;;16.60;14.97;;;16.20;99.90;;;;;;6237061;23;20409;-95
2021/07/16 05:38:27;;;;;;;19.43;16.13;;;16.20;99.90;;;;;;6234401;23;20159;-93
2021/07/16 05:40:58;;;;;;;17.10;15.50;;;16.30;99.90;;;;;;6233340;23;20174;-94
2021/07/16 05:43:24;;;;;;;15.20;13.60;;;16.40;99.90;;;;;;6234359;23;20253;-94
2021/07/16 05:45:50;;;;;;;15.83;14.13;;;16.50;99.90;;;;;;6236210;23;20559;-95
2021/07/16 05:48:16;;;;;;;16.00;14.30;;;16.60;99.90;;;;;;6235285;23;20182;-93
2021/07/16 05:50:48;;;;;;;15.20;13.60;;;16.60;99.90;;;;;;6234934;23;20409;-95
2021/07/16 05:53:15;;;;;;;14.73;13.17;;;16.60;99.90;;;;;;6236572;23;20438;-96
2021/07/16 05:55:41;;;;;;;17.50;14.33;;;16.70;99.90;;;;;;6235010;23;20459;-94
2021/07/16 05:58:09;;;;;;;15.70;13.80;;;16.80;99.90;;;;;;6226700;23;20398;-92
2021/07/16 06:00:40;;;;;;;16.30;14.70;;;16.80;99.90;;;;;;6235248;22;20397;-94
2021/07/16 06:03:06;;;;;;;15.83;14.13;;;16.80;99.90;;;;;;6236087;23;20398;-96
2021/07/16 06:05:32;;;;;;;16.97;13.60;;;16.80;99.90;;;;;;6233756;23;20402;-95
2021/07/16 06:07:59;;;;;;;16.10;14.20;;;16.80;99.90;;;;;;6234801;23;20166;-96
2021/07/16 06:10:25;;;;;;;16.97;14.10;;;16.80;99.90;;;;;;6235297;22;20401;-94
2021/07/16 06:12:51;;;;;;;14.83;13.13;;;16.80;99.90;;;;;;6236010;23;20402;-96
2021/07/16 06:15:19;;;;;;;15.00;13.60;;;17.00;99.90;;;;;;6237395;23;20174;-93
2021/07/16 06:17:45;;;;;;;14.60;13.07;;;17.00;99.90;;;;;;6214186;23;20237;-96
2021/07/16 06:20:13;;;;;;;15.47;13.67;;;17.00;99.90;;;;;;6239401;23;20841;-93
2021/07/16 06:22:39;;;;;;;15.57;14.07;;;16.90;99.90;;;;;;6236232;23;20628;-94
2021/07/16 06:25:06;;;;;;;17.60;15.20;;;17.00;99.90;;;;;;6235841;23;20401;-94
2021/07/16 06:27:39;;;;;;;18.17;15.00;;;17.20;99.90;;;;;;6232823;23;20405;-94
2021/07/16 06:30:06;;;;;;;16.70;15.00;;;17.20;99.90;;;;;;6236434;22;21032;-93
2021/07/16 06:32:45;;;;;;;17.33;15.53;;;17.40;99.90;;;;;;6233549;23;20389;-93
2021/07/16 06:35:13;;;;;;;20.10;17.33;;;17.00;99.90;;;;;;6241562;23;20452;-95
2021/07/16 06:37:39;;;;;;;19.23;17.20;;;17.10;99.90;;;;;;6238258;22;20422;-92
2021/07/16 06:40:06;;;;;;;18.47;16.67;;;17.00;99.90;;;;;;6231968;23;20417;-88
2021/07/16 06:42:33;;;;;;;18.47;16.57;;;17.00;99.90;;;;;;6233295;23;20414;-89
2021/07/16 06:45:00;;;;;;;16.73;15.07;;;17.20;99.90;;;;;;6207506;23;20402;-91
2021/07/16 06:47:26;;;;;;;19.40;16.40;;;17.50;99.90;;;;;;6233112;22;20460;-88
2021/07/16 06:49:51;;;;;;;17.93;15.97;;;17.60;99.90;;;;;;6239999;22;20464;-87
2021/07/16 06:52:20;;;;;;;19.30;17.27;;;17.70;99.90;;;;;;6237823;22;20392;-88
2021/07/16 06:54:46;;;;;;;19.27;17.00;;;17.50;99.90;;;;;;6262017;22;20669;-87
2021/07/16 06:57:14;;;;;;;19.97;17.67;;;17.40;99.90;;;;;;6239026;22;20424;-88
2021/07/16 06:59:41;;;;;;;17.13;15.33;;;17.40;99.90;;;;;;6237345;22;20162;-88
2021/07/16 07:02:08;;;;;;;24.87;16.80;;;17.50;99.90;;;;;;6232221;22;20781;-90
2021/07/16 07:04:34;;;;;;;19.27;17.27;;;17.50;99.90;;;;;;6239515;22;20743;-90
2021/07/16 07:07:04;;;;;;;18.70;16.80;;;17.50;99.90;;;;;;6238244;22;20389;-91
2021/07/16 07:09:31;;;;;;;19.97;16.27;;;17.40;99.90;;;;;;6240065;22;20500;-90
2021/07/16 07:11:57;;;;;;;19.83;17.03;;;17.40;99.90;;;;;;6240741;22;20400;-90
2021/07/16 07:14:24;;;;;;;21.70;18.53;;;17.30;99.90;;;;;;6239626;22;20432;-90
2021/07/16 07:16:50;;;;;;;19.27;17.37;;;17.20;99.90;;;;;;6238214;22;20396;-90
2021/07/16 07:19:22;;;;;;;18.53;16.73;;;17.40;99.90;;;;;;6235490;22;20411;-89
2021/07/16 07:21:48;;;;;;;16.80;15.10;;;17.60;99.90;;;;;;6238531;22;20480;-90
2021/07/16 07:24:14;;;;;;;15.43;13.93;;;18.10;99.90;;;;;;6240546;22;20420;-90
2021/07/16 07:26:43;;;;;;;16.10;14.40;;;18.80;99.90;;;;;;6267161;22;20162;-91
2021/07/16 07:29:10;;;;;;;16.50;15.00;;;19.10;99.90;;;;;;6265245;22;20506;-90
2021/07/16 07:31:39;;;;;;;17.70;15.97;;;19.30;99.90;;;;;;6238913;22;20384;-90
2021/07/16 07:34:05;;;;;;;14.07;12.57;;;18.90;99.90;;;;;;6239831;22;20556;-89
2021/07/16 07:36:31;;;;;;;13.83;12.47;;;19.50;99.90;;;;;;6237713;22;20404;-90
2021/07/16 07:42:07;;;;;;;10.13;9.37;;;20.30;99.90;;;;;;6265553;22;20866;-92
2021/07/16 07:44:36;;;;;;;10.43;9.63;;;20.60;99.90;;;;;;6219978;22;20432;-92
2021/07/16 07:47:37;;;;;;;9.07;8.27;;;20.80;99.90;;;;;;6236420;22;20825;-92
2021/07/16 12:31:24;;;;;;;3.93;3.70;;;18.10;99.90;;;;;;6265890;22;20953;-88
2021/07/16 12:33:53;;;;;;;4.20;3.77;;;17.70;99.90;;;;;;6234204;22;20529;-90
2021/07/16 12:36:36;;;;;;;4.10;3.80;;;17.50;99.90;;;;;;6231942;22;20408;-92
2021/07/16 12:39:24;;;;;;;4.90;4.60;;;17.40;99.90;;;;;;6230602;22;20385;-91
2021/07/16 12:42:19;;;;;;;4.40;4.10;;;17.60;99.90;;;;;;6232888;22;20812;-89
2021/07/16 12:45:09;;;;;;;5.20;4.80;;;17.70;99.90;;;;;;6234471;22;20671;-90
2021/07/16 12:47:52;;;;;;;5.17;4.77;;;18.20;99.90;;;;;;6258013;22;20419;-91
2021/07/16 12:50:21;;;;;;;5.60;5.20;;;18.70;99.90;;;;;;6258466;22;20380;-92
2021/07/16 12:53:00;;;;;;;6.67;6.10;;;19.10;99.90;;;;;;6232176;22;20558;-91
2021/07/16 12:55:30;;;;;;;5.87;5.37;;;19.40;99.90;;;;;;6232625;22;20414;-91
2021/07/16 12:58:01;;;;;;;5.60;4.87;;;19.70;99.90;;;;;;6254619;22;20376;-89
2021/07/16 13:00:27;;;;;;;3.93;3.73;;;20.30;99.90;;;;;;6228705;22;20408;-90
2021/07/16 13:03:18;;;;;;;4.43;4.13;;;20.60;99.90;;;;;;6228584;22;20377;-89
2021/07/16 13:05:44;;;;;;;4.57;4.27;;;20.70;99.90;;;;;;6232335;22;20343;-90
2021/07/16 13:08:25;;;;;;;3.93;3.73;;;21.10;99.90;;;;;;6230149;22;20389;-89
2021/07/16 13:11:05;;;;;;;3.80;3.60;;;21.10;99.90;;;;;;6258676;22;20161;-89
2021/07/16 13:13:36;;;;;;;4.40;4.10;;;21.30;99.90;;;;;;6255976;22;20436;-89
2021/07/16 13:16:11;;;;;;;3.47;3.17;;;21.30;99.90;;;;;;6231672;22;20431;-89
2021/07/16 13:18:53;;;;;;;4.47;4.07;;;20.70;99.90;;;;;;6256983;22;20471;-89
2021/07/16 13:21:24;;;;;;;4.30;4.00;;;20.30;99.90;;;;;;6233056;22;20398;-90
2021/07/16 13:23:52;;;;;;;4.40;4.10;;;20.20;99.90;;;;;;6258505;22;20436;-89
2021/07/16 13:26:27;;;;;;;4.30;4.00;;;20.30;99.90;;;;;;6257884;22;20389;-87
2021/07/16 13:28:55;;;;;;;4.03;3.83;;;20.50;99.90;;;;;;6231299;22;20431;-88
2021/07/16 13:31:21;;;;;;;3.93;3.63;;;20.70;99.90;;;;;;6230721;22;20393;-89
2021/07/16 13:33:46;;;;;;;5.60;4.30;;;20.70;99.90;;;;;;6257293;22;20443;-88
2021/07/16 13:36:13;;;;;;;4.30;4.00;;;20.90;99.90;;;;;;6259314;22;20162;-88
2021/07/16 13:38:44;;;;;;;6.10;5.60;;;21.00;99.90;;;;;;6230523;22;20581;-88
2021/07/16 13:41:37;;;;;;;6.40;4.40;;;20.90;99.90;;;;;;6229266;22;20404;-90
2021/07/16 13:44:51;;;;;;;9.07;5.50;;;21.00;99.90;;;;;;6231375;22;20771;-90
2021/07/16 13:47:42;;;;;;;6.20;5.77;;;21.10;99.90;;;;;;6228365;22;20956;-89
2021/07/16 16:24:35;;;;;;;2.07;1.87;;;37.80;50.00;;;;;;6287203;22;20202;-88
2021/07/16 16:27:00;;;;;;;3.90;2.40;;;34.80;53.70;;;;;;6295324;22;20814;-85
2021/07/16 16:29:32;;;;;;;2.40;2.20;;;35.30;56.20;;;;;;6326710;22;20167;-87
2021/07/16 16:31:58;;;;;;;1.77;1.67;;;35.20;55.40;;;;;;6297721;22;20286;-86
2021/07/16 16:34:26;;;;;;;2.80;1.60;;;34.00;55.90;;;;;;6296766;22;20474;-86
2021/07/16 16:36:52;;;;;;;1.73;1.63;;;35.80;56.10;;;;;;6296175;22;20172;-90
2021/07/16 16:39:17;;;;;;;2.00;1.90;;;37.70;52.40;;;;;;6295722;22;20389;-88
2021/07/16 16:41:43;;;;;;;1.90;1.80;;;39.30;50.70;;;;;;6295316;22;20594;-87
2021/07/16 16:44:10;;;;;;;2.30;2.10;;;39.70;48.40;;;;;;6295906;22;20187;-87
2021/07/16 16:46:38;;;;;;;3.45;2.00;;;39.10;48.60;;;;;;6298173;22;20620;-89
2021/07/16 16:49:05;;;;;;;2.73;2.23;;;39.00;49.10;;;;;;6292052;22;20163;-87
2021/07/16 16:51:31;;;;;;;1.70;1.60;;;37.20;49.60;;;;;;6271019;22;20164;-88
2021/07/16 16:54:03;;;;;;;2.20;2.00;;;37.10;50.80;;;;;;6298122;22;20191;-88
2021/07/16 16:56:29;;;;;;;2.20;2.10;;;37.90;50.90;;;;;;6295766;22;20449;-87
2021/07/16 16:58:54;;;;;;;3.33;1.60;;;38.10;50.20;;;;;;6297553;22;20166;-88
2021/07/16 17:01:20;;;;;;;1.90;1.80;;;37.70;49.70;;;;;;6298926;22;20240;-87
2021/07/16 17:03:47;;;;;;;1.97;1.87;;;36.90;50.40;;;;;;6327079;22;20164;-87
2021/07/16 17:06:12;;;;;;;2.23;2.03;;;36.90;51.50;;;;;;6296664;22;20247;-87
2021/07/16 17:08:38;;;;;;;1.90;1.80;;;37.20;51.60;;;;;;6324766;22;20202;-86
2021/07/16 17:11:05;;;;;;;1.80;1.70;;;37.50;50.90;;;;;;6297114;22;20253;-87
2021/07/16 17:13:31;;;;;;;3.73;1.80;;;37.70;50.30;;;;;;6294769;22;20217;-87
2021/07/16 17:15:57;;;;;;;3.23;1.83;;;37.30;50.50;;;;;;6296961;22;20610;-86
2021/07/16 17:18:23;;;;;;;2.10;2.00;;;34.80;51.60;;;;;;6298767;22;20626;-86
2021/07/16 17:20:49;;;;;;;4.10;1.97;;;33.10;57.60;;;;;;6271346;22;20387;-86
2021/07/16 17:23:16;;;;;;;2.00;1.90;;;32.70;57.60;;;;;;6272077;22;20398;-87
2021/07/16 17:25:42;;;;;;;1.83;1.73;;;31.70;58.80;;;;;;6298134;22;20176;-88
2021/07/16 17:28:07;;;;;;;2.03;1.93;;;31.90;59.90;;;;;;6298906;22;21102;-88
2021/07/16 17:30:34;;;;;;;3.10;1.87;;;33.40;59.40;;;;;;6299081;22;20230;-88
2021/07/16 17:33:01;;;;;;;1.90;1.80;;;33.80;57.20;;;;;;6300036;22;20424;-87
2021/07/16 17:35:27;;;;;;;2.30;1.90;;;35.10;55.60;;;;;;6272140;22;20575;-88
2021/07/16 17:37:59;;;;;;;2.10;2.00;;;36.30;52.50;;;;;;6298823;22;20813;-87
2021/07/16 17:40:31;;;;;;;2.20;1.93;;;36.20;52.20;;;;;;6298551;22;20614;-88
2021/07/16 17:43:06;;;;;;;2.10;1.90;;;35.10;54.60;;;;;;6299972;22;20393;-87
2021/07/16 17:45:32;;;;;;;2.70;2.20;;;34.30;54.00;;;;;;6299764;22;20898;-87
2021/07/16 17:48:00;;;;;;;2.03;1.93;;;33.30;56.90;;;;;;6299578;22;20401;-88
2021/07/16 17:50:28;;;;;;;2.00;1.90;;;33.00;57.50;;;;;;6325967;22;20387;-87
2021/07/16 17:52:58;;;;;;;2.13;2.03;;;32.70;58.00;;;;;;6296400;22;20856;-86
2021/07/16 17:55:24;;;;;;;2.63;2.43;;;31.00;60.10;;;;;;6296897;22;20434;-87
2021/07/16 17:57:57;;;;;;;2.03;1.93;;;29.40;65.80;;;;;;6297623;22;20778;-86
2021/07/16 18:00:26;;;;;;;2.53;2.13;;;27.70;72.90;;;;;;6298743;22;20438;-85
2021/07/16 18:02:52;;;;;;;2.10;2.00;;;26.50;80.70;;;;;;6297646;22;20387;-86
2021/07/16 18:05:20;;;;;;;2.40;2.30;;;25.70;88.80;;;;;;6296391;22;20402;-86
2021/07/16 18:07:49;;;;;;;3.10;2.90;;;24.90;93.50;;;;;;6299622;22;20384;-85
2021/07/16 18:10:19;;;;;;;2.53;2.40;;;24.30;98.20;;;;;;6299187;22;20474;-87
2021/07/16 18:12:46;;;;;;;2.80;2.60;;;23.90;99.90;;;;;;6272677;22;20401;-85
2021/07/16 18:15:14;;;;;;;3.00;2.70;;;23.60;99.90;;;;;;6297405;22;20442;-86
2021/07/16 18:17:41;;;;;;;2.60;2.40;;;23.40;99.90;;;;;;6325294;22;20754;-86
2021/07/16 18:20:11;;;;;;;2.50;2.40;;;23.30;99.90;;;;;;6271641;22;20901;-87
2021/07/16 18:22:37;;;;;;;5.17;3.10;;;23.50;99.90;;;;;;6324488;22;20375;-86
2021/07/16 18:25:08;;;;;;;2.80;2.60;;;23.50;99.90;;;;;;6273629;22;20411;-84
2021/07/16 18:27:37;;;;;;;2.63;2.53;;;23.50;99.90;;;;;;6296736;22;20213;-85
2021/07/16 18:30:04;;;;;;;2.70;2.60;;;23.30;99.90;;;;;;6297936;22;20396;-85
2021/07/16 18:32:46;;;;;;;2.60;2.50;;;23.10;99.90;;;;;;6266670;22;21213;-87
2021/07/16 18:35:13;;;;;;;3.70;2.93;;;22.90;99.90;;;;;;6293104;22;20449;-87
2021/07/16 18:37:40;;;;;;;2.90;2.80;;;22.70;99.90;;;;;;6298643;22;20395;-88
2021/07/16 18:40:12;;;;;;;3.50;3.20;;;22.50;99.90;;;;;;6295849;22;20877;-87
2021/07/16 18:42:38;;;;;;;6.47;2.77;;;22.20;99.90;;;;;;6296647;22;20391;-88
2021/07/16 18:45:07;;;;;;;3.70;3.40;;;22.00;99.90;;;;;;6296831;22;20388;-87
2021/07/16 18:47:33;;;;;;;3.60;2.70;;;21.80;99.90;;;;;;6292300;22;20161;-87
2021/07/16 18:49:59;;;;;;;3.30;2.50;;;21.80;99.90;;;;;;6294388;22;20399;-85
2021/07/16 18:52:26;;;;;;;4.50;4.20;;;21.70;99.90;;;;;;6296128;22;20386;-87
2021/07/16 18:54:52;;;;;;;5.30;4.87;;;21.70;99.90;;;;;;6295408;22;20317;-86
2021/07/16 18:57:19;;;;;;;5.60;5.20;;;21.70;99.90;;;;;;6295411;22;20427;-86
2021/07/16 18:59:45;;;;;;;5.33;4.90;;;21.60;99.90;;;;;;6272812;22;20172;-88
2021/07/16 19:02:12;;;;;;;5.53;5.13;;;21.60;99.90;;;;;;6297751;22;20415;-88
2021/07/16 19:04:43;;;;;;;6.00;5.50;;;21.50;99.90;;;;;;6295888;22;20406;-89
2021/07/16 19:07:12;;;;;;;6.37;5.87;;;21.50;99.90;;;;;;6291683;22;20395;-87
2021/07/16 19:09:38;;;;;;;6.50;6.00;;;21.40;99.90;;;;;;6323698;22;20397;-87
2021/07/16 19:12:10;;;;;;;7.20;6.50;;;21.30;99.90;;;;;;6318465;22;20387;-88
2021/07/16 19:14:36;;;;;;;7.63;7.10;;;21.20;99.90;;;;;;6293964;22;20768;-87
2021/07/16 19:17:03;;;;;;;9.00;8.30;;;21.20;99.90;;;;;;6272525;22;20403;-87
2021/07/16 19:19:33;;;;;;;8.60;7.90;;;21.10;99.90;;;;;;6292901;22;20394;-88
2021/07/16 19:22:00;;;;;;;8.43;7.83;;;21.00;99.90;;;;;;6294115;22;20403;-88
2021/07/16 19:24:31;;;;;;;10.10;8.70;;;20.90;99.90;;;;;;6292832;22;20411;-90
2021/07/16 19:26:56;;;;;;;11.27;10.03;;;20.80;99.90;;;;;;6297778;22;20391;-88
2021/07/16 19:29:22;;;;;;;10.27;9.27;;;20.60;99.90;;;;;;6298274;22;20875;-88
2021/07/16 19:31:48;;;;;;;9.73;8.83;;;20.60;99.90;;;;;;6300070;22;20157;-88
2021/07/16 19:34:15;;;;;;;9.27;8.37;;;20.60;99.90;;;;;;6297955;22;20449;-87
2021/07/16 19:36:42;;;;;;;9.90;9.10;;;20.50;99.90;;;;;;6298906;22;20164;-87
2021/07/16 19:39:08;;;;;;;10.20;9.40;;;20.40;99.90;;;;;;6324989;22;20409;-88
2021/07/16 19:41:34;;;;;;;10.17;9.33;;;20.30;99.90;;;;;;6297472;22;20390;-88
2021/07/16 19:44:00;;;;;;;10.03;9.23;;;20.20;99.90;;;;;;6299306;22;20391;-87
2021/07/16 19:46:28;;;;;;;10.13;9.30;;;20.20;99.90;;;;;;6324553;22;20478;-88
2021/07/16 19:48:56;;;;;;;10.77;9.87;;;20.10;99.90;;;;;;6295516;22;20206;-87
2021/07/16 19:51:22;;;;;;;11.27;10.40;;;20.10;99.90;;;;;;6299725;22;20391;-88
2021/07/16 19:53:49;;;;;;;11.47;10.57;;;20.10;99.90;;;;;;6326611;22;20438;-88
2021/07/16 19:56:17;;;;;;;10.90;10.00;;;20.10;99.90;;;;;;6297930;22;21678;-88
2021/07/16 19:58:45;;;;;;;10.93;9.93;;;20.00;99.90;;;;;;6301248;22;20395;-87
2021/07/16 20:01:11;;;;;;;10.90;10.00;;;20.00;99.90;;;;;;6301122;22;20391;-87
2021/07/16 20:03:38;;;;;;;10.63;9.83;;;20.00;99.90;;;;;;6300029;22;20391;-87